.
WxDataArchive / Data Records for 2015-01-17
2015-01-16 January 2015 2015-01-18

Data Records for Saturday, 17 January 2015

Time	Temp	Chill	HIndex	Humid	Dewpt	 Wind 	HiWind	WindDir	Rain 	Barom
-----	----	-----	------	-----	-----	------	------	-------	-----	-----
00:00	20.8	20.8	20.8	77	14.7	2	5	90	0.00	30.177 
00:05	20.6	20.6	20.6	77	14.6	1	3	90	0.00	30.177 
00:10	20.5	20.5	20.5	77	14.5	0	3	90	0.00	30.177 
00:15	20.2	20.2	20.2	77	14.2	1	6	90	0.00	30.173 
00:20	20.0	20.0	20.0	77	14.0	1	4	90	0.00	30.173 
00:25	20.0	20.0	20.0	78	14.3	1	3	68	0.00	30.173 
00:30	19.9	19.9	19.9	78	14.2	1	4	68	0.00	30.169 
00:35	19.7	19.7	19.7	78	14.0	1	3	68	0.00	30.169 
00:40	19.5	19.5	19.5	78	13.8	1	3	68	0.00	30.169 
00:45	19.4	19.4	19.4	78	13.7	0	2	68	0.00	30.166 
00:50	19.1	19.1	19.1	79	13.7	0	3	68	0.00	30.166 
00:55	18.9	18.9	18.9	79	13.5	0	3	68	0.00	30.166 
01:00	18.8	18.8	18.8	79	13.4	0	3	68	0.00	30.163 
01:05	18.6	18.6	18.6	80	13.5	0	3	68	0.00	30.163 
01:10	18.6	18.6	18.6	80	13.5	0	2	68	0.00	30.163 
01:15	18.4	18.4	18.4	80	13.3	0	3	68	0.00	30.159 
01:20	18.4	18.4	18.4	81	13.6	1	4	68	0.00	30.159 
01:25	18.3	18.3	18.3	81	13.5	1	3	68	0.00	30.159 
01:30	18.3	18.3	18.3	81	13.5	1	4	68	0.00	30.148 
01:35	18.1	18.1	18.1	81	13.3	1	3	68	0.00	30.148 
01:40	18.1	18.1	18.1	81	13.3	1	3	68	0.00	30.148 
01:45	18.1	18.1	18.1	81	13.3	1	3	68	0.00	30.140 
01:50	18.1	18.1	18.1	81	13.3	1	2	68	0.00	30.140 
01:55	18.0	18.0	18.0	81	13.2	1	3	68	0.00	30.140 
02:00	18.1	18.1	18.1	81	13.3	2	5	90	0.00	30.131 
02:05	18.1	18.1	18.1	81	13.3	1	3	90	0.00	30.131 
02:10	18.1	18.1	18.1	81	13.3	1	4	90	0.00	30.131 
02:15	18.1	18.1	18.1	81	13.3	2	5	90	0.00	30.129 
02:20	18.0	18.0	18.0	80	12.9	1	4	112	0.00	30.129 
02:25	17.8	17.8	17.8	80	12.7	1	4	90	0.00	30.129 
02:30	17.8	17.8	17.8	81	13.0	1	4	68	0.00	30.122 
02:35	17.7	17.7	17.7	81	12.9	2	4	68	0.00	30.122 
02:40	17.7	17.7	17.7	81	12.9	1	3	68	0.00	30.122 
02:45	17.7	17.7	17.7	80	12.6	1	4	68	0.00	30.115 
02:50	17.5	17.5	17.5	81	12.7	1	4	68	0.00	30.115 
02:55	17.3	17.3	17.3	80	12.2	1	3	68	0.00	30.115 
03:00	17.2	17.2	17.2	80	12.1	0	2	68	0.00	30.113 
03:05	17.0	17.0	17.0	81	12.2	0	2	68	0.00	30.113 
03:10	16.9	16.9	16.9	81	12.1	0	2	68	0.00	30.113 
03:15	16.7	16.7	16.7	81	11.9	0	2	68	0.00	30.109 
03:20	16.5	16.5	16.5	81	11.7	0	1	68	0.00	30.109 
03:25	16.4	16.4	16.4	81	11.6	0	3	68	0.00	30.109 
03:30	16.2	16.2	16.2	81	11.4	0	2	68	0.00	30.106 
03:35	16.1	16.1	16.1	81	11.3	0	2	68	0.00	30.106 
03:40	15.9	15.9	15.9	82	11.4	0	1	68	0.00	30.106 
03:45	15.7	15.7	15.7	82	11.2	0	2	68	0.00	30.101 
03:50	15.6	15.6	15.6	82	11.1	0	2	68	0.00	30.101 
03:55	15.6	15.6	15.6	82	11.1	0	2	68	0.00	30.101 
04:00	15.4	15.4	15.4	82	10.9	0	2	68	0.00	30.088 
04:05	15.4	15.4	15.4	82	10.9	0	2	68	0.00	30.088 
04:10	15.2	15.2	15.2	83	11.0	0	2	68	0.00	30.088 
04:15	15.2	15.2	15.2	83	11.0	0	2	68	0.00	30.082 
04:20	15.1	15.1	15.1	83	10.9	1	2	68	0.00	30.082 
04:25	15.1	15.1	15.1	83	10.9	0	2	68	0.00	30.082 
04:30	15.1	15.1	15.1	83	10.9	0	1	68	0.00	30.071 
04:35	14.9	14.9	14.9	83	10.7	0	2	68	0.00	30.071 
04:40	14.9	14.9	14.9	84	11.0	1	2	68	0.00	30.071 
04:45	14.8	14.8	14.8	84	10.9	1	2	68	0.00	30.067 
04:50	14.8	14.8	14.8	84	10.9	0	1	68	0.00	30.067 
04:55	14.6	14.6	14.6	84	10.7	0	3	68	0.00	30.067 
05:00	14.6	14.6	14.6	84	10.7	0	2	68	0.00	30.055 
05:05	14.4	14.4	14.4	84	10.5	0	1	68	0.00	30.055 
05:10	14.4	14.4	14.4	84	10.5	0	2	68	0.00	30.055 
05:15	14.4	14.4	14.4	85	10.7	0	3	68	0.00	30.044 
05:20	14.4	14.4	14.4	85	10.7	0	1	68	0.00	30.044 
05:25	14.3	14.3	14.3	85	10.6	1	2	68	0.00	30.044 
05:30	14.3	14.3	14.3	86	10.9	0	1	68	0.00	30.040 
05:35	14.3	14.3	14.3	86	10.9	0	2	68	0.00	30.040 
05:40	14.3	14.3	14.3	86	10.9	0	2	68	0.00	30.040 
05:45	14.3	14.3	14.3	86	10.9	0	1	68	0.00	30.030 
05:50	14.4	14.4	14.4	86	11.0	0	1	68	0.00	30.030 
05:55	14.4	14.4	14.4	87	11.3	0	2	68	0.00	30.030 
06:00	14.4	14.4	14.4	87	11.3	1	3	68	0.00	30.014 
06:05	14.4	14.4	14.4	87	11.3	0	2	68	0.00	30.014 
06:10	14.6	14.6	14.6	88	11.7	1	2	68	0.00	30.014 
06:15	14.9	14.9	14.9	88	12.0	0	2	68	0.00	30.007 
06:20	15.1	15.1	15.1	88	12.2	0	1	68	0.00	30.007 
06:25	15.4	15.4	15.4	88	12.5	0	1	68	0.00	30.007 
06:30	15.6	15.6	15.6	88	12.7	0	1	68	0.00	30.012 
06:35	15.7	15.7	15.7	88	12.8	0	0	---	0.00	30.012 
06:40	15.7	15.7	15.7	88	12.8	0	2	68	0.00	30.012 
06:45	15.7	15.7	15.7	88	12.8	0	1	68	0.00	30.010 
06:50	15.9	15.9	15.9	88	13.0	0	0	---	0.00	30.010 
06:55	15.9	15.9	15.9	88	13.0	0	0	---	0.00	30.010 
07:00	15.9	15.9	15.9	88	13.0	0	0	---	0.00	30.014 
07:05	15.9	15.9	15.9	88	13.0	0	0	---	0.00	30.014 
07:10	16.1	16.1	16.1	89	13.4	0	1	68	0.00	30.014 
07:15	16.2	16.2	16.2	89	13.5	0	0	---	0.00	30.004 
07:20	16.4	16.4	16.4	89	13.7	0	1	68	0.00	30.004 
07:25	16.7	16.7	16.7	89	14.0	0	1	68	0.00	30.004 
07:30	16.9	16.9	16.9	89	14.2	0	1	68	0.00	29.993 
07:35	17.2	17.2	17.2	89	14.5	1	2	68	0.00	29.993 
07:40	17.7	17.7	17.7	90	15.3	0	1	68	0.00	29.993 
07:45	18.8	18.8	18.8	91	16.6	0	1	68	0.00	29.978 
07:50	19.7	19.7	19.7	91	17.5	0	0	---	0.00	29.978 
07:55	20.8	20.8	20.8	92	18.9	0	1	68	0.00	29.978 
08:00	23.2	23.2	23.2	93	21.5	1	3	68	0.00	29.957 
08:05	25.3	25.3	25.3	93	23.6	0	2	68	0.00	29.957 
08:10	26.9	26.9	26.9	93	25.2	1	4	68	0.00	29.957 
08:15	27.9	27.9	27.9	92	25.9	1	4	135	0.00	29.948 
08:20	28.5	28.5	28.5	92	26.5	1	3	90	0.00	29.948 
08:25	29.0	29.0	29.0	91	26.7	1	4	90	0.00	29.948 
08:30	29.3	29.3	29.3	90	26.7	2	7	112	0.00	29.937 
08:35	29.5	29.5	29.5	89	26.7	1	3	90	0.00	29.937 
08:40	29.8	29.8	29.8	89	27.0	1	4	90	0.00	29.937 
08:45	30.1	30.1	30.1	88	27.0	1	5	90	0.00	29.934 
08:50	30.4	30.4	30.4	87	27.0	1	3	90	0.00	29.934 
08:55	30.6	30.6	30.6	87	27.2	1	3	90	0.00	29.934 
09:00	30.7	30.7	30.7	86	27.0	0	2	90	0.00	29.931 
09:05	30.9	30.9	30.9	86	27.2	0	3	90	0.00	29.931 
09:10	31.2	31.2	31.2	86	27.5	0	3	90	0.00	29.931 
09:15	31.5	31.5	31.5	85	27.5	1	5	90	0.00	29.932 
09:20	31.9	31.9	31.9	85	27.9	1	3	90	0.00	29.932 
09:25	32.4	32.4	32.4	84	28.1	1	3	90	0.00	29.932 
09:30	32.9	32.9	32.9	84	28.6	1	5	90	0.00	29.929 
09:35	33.5	33.5	33.5	83	28.9	0	4	315	0.00	29.929 
09:40	34.1	34.1	34.1	82	29.2	1	3	22	0.00	29.929 
09:45	34.7	34.7	34.7	81	29.5	0	5	68	0.00	29.927 
09:50	35.2	35.2	35.2	79	29.4	1	6	90	0.00	29.927 
09:55	35.5	35.5	35.5	79	29.6	1	3	202	0.00	29.927 
10:00	35.8	35.8	35.8	78	29.6	1	5	248	0.00	29.920 
10:05	36.3	36.3	36.3	77	29.8	1	3	225	0.00	29.920 
10:10	36.6	36.6	36.6	77	30.1	1	3	90	0.00	29.920 
10:15	36.9	36.9	36.9	76	30.1	1	4	270	0.00	29.917 
10:20	37.3	37.3	37.3	76	30.4	1	3	270	0.00	29.917 
10:25	37.6	37.6	37.6	74	30.1	2	6	248	0.00	29.917 
10:30	37.9	37.9	37.9	74	30.4	1	4	248	0.00	29.914 
10:35	38.2	38.2	38.2	73	30.3	2	6	248	0.00	29.914 
10:40	38.5	38.5	38.5	73	30.6	1	4	22	0.00	29.914 
10:45	38.6	38.6	38.6	72	30.4	1	7	292	0.00	29.900 
10:50	38.9	38.9	38.9	72	30.7	1	3	270	0.00	29.900 
10:55	39.2	39.2	39.2	71	30.6	1	6	248	0.00	29.900 
11:00	39.5	39.5	39.5	70	30.5	1	4	270	0.00	29.899 
11:05	39.6	39.6	39.6	70	30.6	1	5	68	0.00	29.899 
11:10	39.9	39.9	39.9	69	30.6	1	4	0	0.00	29.899 
11:15	40.1	40.1	40.1	69	30.8	2	9	248	0.00	29.892 
11:20	40.2	40.2	40.2	68	30.5	1	6	45	0.00	29.892 
11:25	40.3	40.3	40.3	68	30.6	2	10	248	0.00	29.892 
11:30	40.6	40.6	40.6	67	30.5	1	6	225	0.00	29.882 
11:35	40.6	40.6	40.6	67	30.5	1	4	315	0.00	29.882 
11:40	40.6	40.6	40.6	67	30.5	1	6	248	0.00	29.882 
11:45	40.8	40.8	40.8	67	30.7	1	4	292	0.00	29.872 
11:50	40.9	40.9	40.9	66	30.4	1	5	248	0.00	29.872 
11:55	41.1	41.1	41.1	66	30.6	2	11	248	0.00	29.872 
12:00	41.3	41.3	41.3	66	30.8	1	6	22	0.00	29.860 
12:05	41.5	41.5	41.5	65	30.6	2	6	248	0.00	29.860 
12:10	41.8	41.8	41.8	65	30.9	2	6	270	0.00	29.860 
12:15	42.1	42.1	42.1	64	30.8	2	12	292	0.00	29.855 
12:20	42.3	42.3	42.3	63	30.6	2	6	270	0.00	29.855 
12:25	42.6	42.6	42.6	63	30.9	1	10	248	0.00	29.855 
12:30	42.9	42.9	42.9	62	30.8	1	4	248	0.00	29.838 
12:35	43.1	43.1	43.1	62	31.0	1	6	248	0.00	29.838 
12:40	43.3	43.3	43.3	61	30.8	1	5	90	0.00	29.838 
12:45	43.2	43.2	43.2	61	30.7	2	7	292	0.00	29.819 
12:50	43.1	43.1	43.1	62	31.0	1	3	292	0.00	29.819 
12:55	43.1	43.1	43.1	62	31.0	1	4	90	0.00	29.819 
13:00	43.1	43.1	43.1	62	31.0	1	3	315	0.00	29.806 
13:05	43.2	43.2	43.2	62	31.1	1	4	90	0.00	29.806 
13:10	43.3	43.3	43.3	61	30.8	2	5	22	0.00	29.806 
13:15	43.5	43.5	43.5	61	31.0	1	5	68	0.00	29.787 
13:20	43.6	43.6	43.6	60	30.6	1	3	270	0.00	29.787 
13:25	43.6	43.6	43.6	60	30.6	2	7	90	0.01	29.787 
13:30	43.9	43.9	43.9	59	30.5	2	7	248	0.00	29.782 
13:35	44.1	44.1	44.1	59	30.7	3	9	248	0.01	29.782 
13:40	44.1	44.1	44.1	59	30.7	1	6	270	0.01	29.782 
13:45	44.2	44.2	44.2	59	30.8	2	8	248	0.00	29.773 
13:50	44.1	44.1	44.1	59	30.7	1	5	315	0.00	29.773 
13:55	43.9	43.9	43.9	59	30.5	1	4	248	0.01	29.773 
14:00	43.9	43.9	43.9	60	30.9	1	6	68	0.01	29.769 
14:05	43.9	43.9	43.9	60	30.9	1	4	90	0.00	29.769 
14:10	43.9	43.9	43.9	60	30.9	2	6	315	0.00	29.769 
14:15	43.9	43.9	43.9	60	30.9	2	10	248	0.01	29.763 
14:20	43.9	43.9	43.9	59	30.5	2	13	270	0.00	29.763 
14:25	43.9	43.9	43.9	60	30.9	2	5	90	0.01	29.763 
14:30	43.9	43.9	43.9	60	30.9	1	4	292	0.00	29.758 
14:35	43.8	43.8	43.8	60	30.8	2	7	292	0.00	29.758 
14:40	43.8	43.8	43.8	60	30.8	3	6	270	0.01	29.758 
14:45	43.8	43.8	43.8	60	30.8	1	6	45	0.00	29.754 
14:50	43.8	43.8	43.8	60	30.8	2	7	90	0.01	29.754 
14:55	43.8	43.8	43.8	60	30.8	2	6	90	0.00	29.754 
15:00	43.8	43.8	43.8	60	30.8	2	12	292	0.00	29.745 
15:05	43.5	43.5	43.5	61	31.0	2	9	90	0.01	29.745 
15:10	43.5	43.5	43.5	61	31.0	1	12	248	0.00	29.745 
15:15	43.5	43.5	43.5	61	31.0	1	4	270	0.00	29.743 
15:20	43.6	43.6	43.6	61	31.0	1	4	248	0.01	29.743 
15:25	43.5	43.5	43.5	62	31.4	2	9	68	0.00	29.743 
15:30	43.3	43.3	43.3	62	31.2	2	13	68	0.00	29.735 
15:35	43.2	43.2	43.2	62	31.1	2	5	248	0.01	29.735 
15:40	42.9	42.9	42.9	63	31.2	1	4	90	0.00	29.735 
15:45	42.9	42.9	42.9	64	31.6	2	6	90	0.00	29.727 
15:50	43.2	43.2	43.2	63	31.5	1	6	90	0.01	29.727 
15:55	43.3	43.3	43.3	62	31.2	3	9	90	0.00	29.727 
16:00	43.6	43.6	43.6	62	31.5	2	11	90	0.01	29.721 
16:05	43.6	43.6	43.6	62	31.5	1	4	90	0.00	29.721 
16:10	43.6	43.6	43.6	62	31.5	2	7	90	0.00	29.721 
16:15	43.6	43.6	43.6	63	31.8	2	8	112	0.01	29.712 
16:20	43.5	43.5	43.5	63	31.8	2	13	90	0.00	29.712 
16:25	43.3	43.3	43.3	64	32.0	2	7	90	0.00	29.712 
16:30	43.2	43.2	43.2	64	31.9	2	6	90	0.01	29.711 
16:35	43.1	43.1	43.1	64	31.8	1	3	112	0.00	29.711 
16:40	42.9	42.9	42.9	64	31.6	1	9	68	0.00	29.711 
16:45	42.9	42.9	42.9	65	32.0	1	3	68	0.00	29.712 
16:50	42.8	42.8	42.8	65	31.9	1	4	0	0.00	29.712 
16:55	42.8	42.8	42.8	65	31.9	1	4	112	0.00	29.712 
17:00	42.6	42.6	42.6	65	31.7	0	2	112	0.01	29.715 
17:05	42.5	42.5	42.5	66	32.0	0	2	112	0.00	29.715 
17:10	42.3	42.3	42.3	66	31.8	0	3	112	0.00	29.715 
17:15	42.2	42.2	42.2	66	31.7	0	8	112	0.00	29.720 
17:20	42.2	42.2	42.2	67	32.0	0	5	90	0.00	29.720 
17:25	41.9	41.9	41.9	67	31.8	1	4	90	0.00	29.720 
17:30	41.6	41.6	41.6	68	31.8	0	2	90	0.00	29.717 
17:35	41.5	41.5	41.5	68	31.7	0	2	90	0.00	29.717 
17:40	41.3	41.3	41.3	68	31.5	0	4	90	0.01	29.717 
17:45	41.2	41.2	41.2	69	31.8	0	3	90	0.00	29.716 
17:50	41.1	41.1	41.1	69	31.7	0	2	90	0.00	29.716 
17:55	40.9	40.9	40.9	69	31.5	0	3	90	0.00	29.716 
18:00	40.8	40.8	40.8	70	31.8	0	3	90	0.00	29.722 
18:05	40.6	40.6	40.6	70	31.6	0	1	90	0.00	29.722 
18:10	40.5	40.5	40.5	70	31.5	0	2	90	0.00	29.722 
18:15	40.5	40.5	40.5	70	31.5	0	2	90	0.00	29.732 
18:20	40.5	40.5	40.5	70	31.5	0	1	90	0.00	29.732 
18:25	40.6	40.6	40.6	70	31.6	0	3	90	0.00	29.732 
18:30	40.5	40.5	40.5	71	31.8	0	1	90	0.00	29.731 
18:35	40.3	40.3	40.3	71	31.7	0	1	90	0.00	29.731 
18:40	40.3	40.3	40.3	71	31.7	0	1	90	0.00	29.731 
18:45	40.3	40.3	40.3	71	31.7	0	2	90	0.00	29.737 
18:50	40.3	40.3	40.3	71	31.7	0	2	90	0.00	29.737 
18:55	40.3	40.3	40.3	71	31.7	0	3	90	0.00	29.737 
19:00	40.5	40.5	40.5	71	31.8	0	2	90	0.00	29.741 
19:05	40.3	40.3	40.3	72	32.0	0	1	90	0.01	29.741 
19:10	40.5	40.5	40.5	72	32.2	0	2	90	0.00	29.741 
19:15	40.5	40.5	40.5	71	31.8	0	2	90	0.00	29.730 
19:20	40.6	40.6	40.6	71	31.9	0	1	90	0.00	29.730 
19:25	40.6	40.6	40.6	71	31.9	0	1	90	0.00	29.730 
19:30	40.6	40.6	40.6	71	31.9	0	4	90	0.00	29.723 
19:35	40.8	40.8	40.8	71	32.1	0	3	90	0.00	29.723 
19:40	40.9	40.9	40.9	70	31.9	0	2	90	0.00	29.723 
19:45	41.1	41.1	41.1	69	31.7	1	3	248	0.00	29.717 
19:50	41.3	41.3	41.3	69	31.9	1	3	248	0.00	29.717 
19:55	41.3	41.3	41.3	68	31.5	1	4	202	0.00	29.717 
20:00	41.6	41.6	41.6	67	31.5	1	5	248	0.00	29.708 
20:05	41.8	41.8	41.8	66	31.3	1	5	248	0.00	29.708 
20:10	41.9	41.9	41.9	66	31.4	0	4	248	0.00	29.708 
20:15	41.8	41.8	41.8	66	31.3	0	3	270	0.01	29.701 
20:20	41.8	41.8	41.8	66	31.3	0	5	68	0.00	29.701 
20:25	41.8	41.8	41.8	66	31.3	1	4	248	0.00	29.701 
20:30	41.6	41.6	41.6	66	31.1	0	3	248	0.00	29.701 
20:35	41.6	41.6	41.6	66	31.1	1	4	225	0.00	29.701 
20:40	41.6	41.6	41.6	66	31.1	1	3	225	0.00	29.701 
20:45	41.6	41.6	41.6	66	31.1	1	4	225	0.00	29.698 
20:50	41.6	41.6	41.6	66	31.1	1	3	248	0.00	29.698 
20:55	41.6	41.6	41.6	66	31.1	1	4	248	0.00	29.698 
21:00	41.8	41.8	41.8	65	30.9	1	3	248	0.00	29.694 
21:05	41.8	41.8	41.8	65	30.9	1	3	248	0.00	29.694 
21:10	41.9	41.9	41.9	65	31.0	1	3	248	0.00	29.694 
21:15	41.9	41.9	41.9	65	31.0	1	3	248	0.00	29.683 
21:20	41.9	41.9	41.9	64	30.6	1	5	248	0.00	29.683 
21:25	42.1	42.1	42.1	64	30.8	1	3	248	0.00	29.683 
21:30	42.1	42.1	42.1	64	30.8	0	2	248	0.00	29.683 
21:35	42.1	42.1	42.1	64	30.8	1	4	45	0.00	29.683 
21:40	42.2	42.2	42.2	64	30.9	2	5	270	0.00	29.683 
21:45	42.5	42.5	42.5	63	30.8	2	6	248	0.00	29.681 
21:50	42.5	42.5	42.5	63	30.8	1	3	248	0.00	29.681 
21:55	42.5	42.5	42.5	63	30.8	1	3	248	0.00	29.681 
22:00	42.5	42.5	42.5	64	31.2	1	4	248	0.00	29.680 
22:05	42.5	42.5	42.5	64	31.2	1	5	248	0.00	29.680 
22:10	42.3	42.3	42.3	64	31.0	1	5	270	0.00	29.680 
22:15	42.3	42.3	42.3	64	31.0	1	4	248	0.00	29.677 
22:20	42.3	42.3	42.3	64	31.0	1	5	248	0.00	29.677 
22:25	42.3	42.3	42.3	64	31.0	1	5	248	0.00	29.677 
22:30	42.3	42.3	42.3	64	31.0	2	6	248	0.00	29.683 
22:35	42.5	42.5	42.5	64	31.2	2	6	248	0.00	29.683 
22:40	42.5	42.5	42.5	64	31.2	1	6	248	0.00	29.683 
22:45	42.5	42.5	42.5	65	31.6	2	4	248	0.00	29.679 
22:50	42.5	42.5	42.5	65	31.6	1	4	248	0.00	29.679 
22:55	42.5	42.5	42.5	65	31.6	2	12	248	0.00	29.679 
23:00	42.6	42.6	42.6	65	31.7	2	9	248	0.00	29.678 
23:05	42.6	42.6	42.6	65	31.7	2	6	248	0.00	29.678 
23:10	42.5	42.5	42.5	66	32.0	2	5	248	0.00	29.678 
23:15	42.3	42.3	42.3	67	32.1	2	7	248	0.00	29.677 
23:20	42.3	42.3	42.3	67	32.1	2	5	248	0.00	29.677 
23:25	42.3	42.3	42.3	68	32.5	2	5	248	0.00	29.677 
23:30	42.2	42.2	42.2	69	32.8	2	7	248	0.00	29.685 
23:35	42.1	42.1	42.1	69	32.7	2	7	248	0.00	29.685 
23:40	41.9	39.5	41.9	69	32.5	4	15	248	0.00	29.685 
23:45	41.8	41.8	41.8	70	32.7	3	6	248	0.00	29.690 
23:50	41.5	41.5	41.5	70	32.5	3	9	248	0.00	29.690 
23:55	41.2	41.2	41.2	71	32.5	3	11	270	0.00	29.690 

CoCoRaHS
IN-AL-39
A2 Web Hosting
Creative Commons License
GoDaddy
search engine by freefind advanced

loaded 2018-11-20 02:43:05 • last modified 2010-11-18 10:43:29
Privacy PolicyDisclaimer
• wx.awcolley.com is powered by PmWiki v.2002016 •
• all content (unless otherwise noted) © 2018 A W Colley